Time;durP1;ratioP1;P1;durP2;ratioP2;P2;SDS_P1;SDS_P2;PMS_P1;PMS_P2;Temp;Humidity;BMP_temperature;BMP_pressure;BME280_temperature;BME280_humidity;BME280_pressure;Samples;Min_cycle;Max_cycle;Signal;HPM_P1;HPM_P2
2021/12/19 00:01:12;;;;;;;55.13;28.07;;;6.00;99.90;;;;;;5092724;28;20173;-69
2021/12/19 00:09:01;;;;;;;56.10;26.73;;;6.10;99.90;;;;;;5093465;28;20172;-68
2021/12/19 00:11:29;;;;;;;53.80;27.73;;;6.10;99.90;;;;;;5092105;28;20181;-69
2021/12/19 00:13:55;;;;;;;58.77;30.30;;;6.10;99.90;;;;;;5093414;28;20197;-67
2021/12/19 00:16:22;;;;;;;55.10;28.23;;;6.00;99.90;;;;;;5093082;28;20178;-68
2021/12/19 00:18:48;;;;;;;53.57;26.97;;;6.00;99.90;;;;;;5092919;28;20288;-68
2021/12/19 00:21:15;;;;;;;59.17;28.40;;;6.00;99.90;;;;;;5092845;28;20256;-69
2021/12/19 00:23:42;;;;;;;53.27;26.00;;;6.00;99.90;;;;;;5092833;28;20170;-68
2021/12/19 00:26:09;;;;;;;63.60;27.67;;;6.00;99.90;;;;;;5093680;28;20173;-68
2021/12/19 00:28:40;;;;;;;53.53;26.57;;;6.00;99.90;;;;;;5091622;28;20184;-67
2021/12/19 00:31:07;;;;;;;55.97;27.37;;;6.00;99.90;;;;;;5092988;28;20177;-68
2021/12/19 00:33:33;;;;;;;58.17;28.07;;;6.00;99.90;;;;;;5091439;28;20633;-68
2021/12/19 00:35:59;;;;;;;54.07;27.27;;;6.00;99.90;;;;;;5092645;28;20250;-68
2021/12/19 00:38:25;;;;;;;68.90;31.13;;;6.00;99.90;;;;;;5091376;28;20250;-68
2021/12/19 00:40:51;;;;;;;58.13;29.10;;;6.00;99.90;;;;;;5091353;28;20173;-68
2021/12/19 00:46:11;;;;;;;59.50;29.87;;;6.00;99.90;;;;;;5084258;28;20264;-68
2021/12/19 00:48:49;;;;;;;60.53;29.60;;;6.00;99.90;;;;;;5096639;28;20177;-68
2021/12/19 00:51:18;;;;;;;62.10;28.53;;;6.10;99.90;;;;;;5096496;28;20244;-68
2021/12/19 00:53:45;;;;;;;61.87;30.87;;;6.10;99.90;;;;;;5094999;28;20627;-67
2021/12/19 00:56:12;;;;;;;61.57;29.17;;;6.10;99.90;;;;;;5096629;28;20208;-68
2021/12/19 00:58:38;;;;;;;60.13;29.27;;;6.10;99.90;;;;;;5096240;28;20197;-67
2021/12/19 01:01:06;;;;;;;59.10;28.87;;;6.10;99.90;;;;;;5096337;28;20622;-68
2021/12/19 01:03:33;;;;;;;56.60;29.27;;;6.10;99.90;;;;;;5094908;28;20550;-68
2021/12/19 01:05:59;;;;;;;60.87;29.97;;;6.10;99.90;;;;;;5096227;28;20185;-68
2021/12/19 01:08:25;;;;;;;59.83;30.70;;;6.10;99.90;;;;;;5096328;28;20154;-68
2021/12/19 01:10:51;;;;;;;63.80;30.27;;;6.10;99.90;;;;;;5094750;28;20196;-68
2021/12/19 01:13:18;;;;;;;67.80;31.20;;;6.20;99.90;;;;;;5099485;28;20643;-68
2021/12/19 01:15:45;;;;;;;63.00;30.80;;;6.10;99.90;;;;;;5096010;28;20189;-68
2021/12/19 01:18:10;;;;;;;60.90;30.13;;;6.10;99.90;;;;;;5094569;28;20273;-68
2021/12/19 01:20:39;;;;;;;60.77;31.17;;;6.10;99.90;;;;;;5096125;28;20642;-68
2021/12/19 01:23:05;;;;;;;55.30;27.67;;;6.10;99.90;;;;;;5095829;28;20256;-68
2021/12/19 01:25:31;;;;;;;59.43;30.37;;;6.10;99.90;;;;;;5096485;28;20185;-69
2021/12/19 01:27:57;;;;;;;56.83;27.07;;;6.10;99.90;;;;;;5094487;28;20176;-68
2021/12/19 01:30:24;;;;;;;60.20;28.23;;;6.20;99.90;;;;;;5095999;28;20212;-68
2021/12/19 01:32:50;;;;;;;54.07;27.10;;;6.20;99.90;;;;;;5095635;28;20172;-68
2021/12/19 01:35:18;;;;;;;54.97;28.50;;;6.20;99.90;;;;;;5095939;28;20197;-68
2021/12/19 01:37:44;;;;;;;52.47;28.20;;;6.20;99.90;;;;;;5094602;28;20261;-68
2021/12/19 01:40:13;;;;;;;53.83;27.07;;;6.20;99.90;;;;;;5095911;28;20200;-68
2021/12/19 01:42:42;;;;;;;55.17;27.40;;;6.20;99.90;;;;;;5094654;28;20667;-68
2021/12/19 01:45:12;;;;;;;52.53;26.20;;;6.20;99.90;;;;;;5094469;28;20197;-68
2021/12/19 01:47:38;;;;;;;42.33;23.97;;;6.20;99.90;;;;;;5095977;28;20218;-68
2021/12/19 01:50:06;;;;;;;36.07;20.63;;;6.20;99.90;;;;;;5095994;28;20173;-68
2021/12/19 01:52:31;;;;;;;33.80;19.27;;;6.20;99.90;;;;;;5095518;28;20204;-68
2021/12/19 01:54:58;;;;;;;27.53;17.30;;;6.20;99.90;;;;;;5094505;28;20205;-69
2021/12/19 01:57:25;;;;;;;31.00;17.40;;;6.20;99.90;;;;;;5095316;28;20170;-68
2021/12/19 01:59:55;;;;;;;26.97;16.50;;;6.20;99.90;;;;;;5094501;28;20180;-69
2021/12/19 02:02:21;;;;;;;26.67;16.37;;;6.20;99.90;;;;;;5094255;28;20178;-69
2021/12/19 02:04:47;;;;;;;24.93;15.93;;;6.20;99.90;;;;;;5094489;28;20544;-69
2021/12/19 02:07:14;;;;;;;26.47;16.00;;;6.20;99.90;;;;;;5095411;28;20169;-69
2021/12/19 02:09:42;;;;;;;28.70;17.13;;;6.20;99.90;;;;;;5095297;28;20166;-68
2021/12/19 02:12:08;;;;;;;26.27;15.63;;;6.10;99.90;;;;;;5095286;28;20200;-69
2021/12/19 02:14:34;;;;;;;24.23;15.37;;;6.10;99.90;;;;;;5094017;28;20197;-69
2021/12/19 02:17:00;;;;;;;29.13;15.83;;;6.10;99.90;;;;;;5095288;28;20590;-69
2021/12/19 02:19:25;;;;;;;26.40;15.43;;;6.10;99.90;;;;;;5095423;28;20682;-69
2021/12/19 02:21:52;;;;;;;23.77;15.30;;;6.10;99.90;;;;;;5093956;28;20177;-69
2021/12/19 02:24:18;;;;;;;24.20;14.53;;;6.10;99.90;;;;;;5097639;22;20316;-83
2021/12/19 02:26:44;;;;;;;23.33;14.90;;;6.10;99.90;;;;;;5056640;28;20378;-83
2021/12/19 02:29:11;;;;;;;24.53;13.90;;;6.10;99.90;;;;;;5057846;28;20177;-83
2021/12/19 02:31:37;;;;;;;25.40;14.07;;;6.10;99.90;;;;;;5055878;28;20229;-83
2021/12/19 02:34:20;;;;;;;26.17;14.37;;;6.10;99.90;;;;;;5056506;28;20183;-83
2021/12/19 02:50:21;;;;;;;23.53;13.27;;;6.00;99.90;;;;;;5055543;28;20169;-83
2021/12/19 02:52:47;;;;;;;21.03;12.83;;;6.00;99.90;;;;;;5054063;28;20206;-83
2021/12/19 02:55:18;;;;;;;25.73;13.80;;;6.00;99.90;;;;;;5054196;28;20174;-83
2021/12/19 02:57:44;;;;;;;22.60;13.40;;;6.10;99.90;;;;;;5053814;28;20209;-82
2021/12/19 03:00:14;;;;;;;22.17;12.73;;;6.10;99.90;;;;;;5055004;28;20177;-82
2021/12/19 03:02:40;;;;;;;21.03;12.27;;;6.10;99.90;;;;;;5054670;28;20191;-82
2021/12/19 03:05:07;;;;;;;20.70;13.10;;;6.00;99.90;;;;;;5055055;28;20171;-82
2021/12/19 03:07:38;;;;;;;22.93;13.57;;;6.00;99.90;;;;;;5070269;28;20178;-82
2021/12/19 03:13:17;;;;;;;21.10;13.60;;;6.00;99.90;;;;;;5056016;28;20694;-82
2021/12/19 03:18:29;;;;;;;21.90;13.63;;;6.00;99.90;;;;;;5056008;28;20197;-82
2021/12/19 03:20:55;;;;;;;23.63;13.50;;;6.10;99.90;;;;;;5055142;28;20185;-82
2021/12/19 03:23:21;;;;;;;23.40;13.53;;;6.10;99.90;;;;;;5054167;28;20175;-82
2021/12/19 03:25:46;;;;;;;24.40;14.33;;;6.10;99.90;;;;;;5053767;28;20189;-82
2021/12/19 03:28:13;;;;;;;27.37;15.00;;;6.10;99.90;;;;;;5055117;28;20185;-85
2021/12/19 03:30:42;;;;;;;29.17;14.60;;;6.00;99.90;;;;;;5053777;28;20174;-84
2021/12/19 03:33:09;;;;;;;29.03;16.50;;;6.00;99.90;;;;;;5055234;28;20237;-84
2021/12/19 03:35:35;;;;;;;26.10;15.53;;;6.00;99.90;;;;;;5054202;28;20232;-84
2021/12/19 03:38:04;;;;;;;22.70;14.80;;;6.00;99.90;;;;;;5055128;28;20202;-85
2021/12/19 03:40:38;;;;;;;29.20;16.07;;;6.10;99.90;;;;;;5054733;28;20162;-85
2021/12/19 03:43:09;;;;;;;26.83;15.67;;;6.00;99.90;;;;;;5053701;28;20606;-85
2021/12/19 03:45:36;;;;;;;27.20;15.90;;;6.00;99.90;;;;;;5053270;28;20708;-84
2021/12/19 03:48:04;;;;;;;25.77;15.87;;;6.00;99.90;;;;;;5053285;28;20178;-84
2021/12/19 03:50:32;;;;;;;25.70;14.53;;;6.00;99.90;;;;;;5053364;28;20630;-84
2021/12/19 03:52:59;;;;;;;19.93;12.97;;;5.90;99.90;;;;;;5053451;28;20198;-84
2021/12/19 03:55:26;;;;;;;18.13;12.73;;;5.80;99.90;;;;;;5053682;28;20186;-84
2021/12/19 03:57:53;;;;;;;17.00;11.07;;;5.80;99.90;;;;;;5053502;28;20209;-84
2021/12/19 04:00:26;;;;;;;15.07;9.70;;;5.80;99.90;;;;;;5053637;28;20213;-83
2021/12/19 04:02:57;;;;;;;12.80;9.40;;;5.70;99.90;;;;;;5054859;28;20190;-83
2021/12/19 04:05:24;;;;;;;12.87;9.30;;;5.70;99.90;;;;;;5053696;28;20190;-82
2021/12/19 04:07:51;;;;;;;15.03;9.70;;;5.60;99.90;;;;;;5053548;28;20232;-83
2021/12/19 04:10:17;;;;;;;14.40;9.63;;;5.60;99.90;;;;;;5053279;28;20183;-84
2021/12/19 04:12:43;;;;;;;13.17;9.53;;;5.70;99.90;;;;;;5054383;28;20738;-85
2021/12/19 04:15:10;;;;;;;11.57;8.03;;;5.60;99.90;;;;;;5053728;28;20179;-86
2021/12/19 04:17:37;;;;;;;11.10;8.37;;;5.60;99.90;;;;;;5053362;28;20252;-86
2021/12/19 04:20:03;;;;;;;9.13;7.63;;;5.60;99.90;;;;;;5053480;28;20206;-82
2021/12/19 04:22:29;;;;;;;10.47;6.97;;;5.60;99.90;;;;;;5074154;28;20194;-82
2021/12/19 04:24:55;;;;;;;9.17;6.83;;;5.60;99.90;;;;;;5057567;28;20252;-82
2021/12/19 04:27:21;;;;;;;10.17;7.50;;;5.60;99.90;;;;;;5059019;28;20181;-82
2021/12/19 04:29:47;;;;;;;8.20;6.90;;;5.50;99.90;;;;;;5058646;28;20169;-82
2021/12/19 04:32:12;;;;;;;9.40;6.80;;;5.50;99.90;;;;;;5057195;28;20190;-82
2021/12/19 04:34:39;;;;;;;8.57;6.77;;;5.60;99.90;;;;;;5057193;28;20232;-82
2021/12/19 05:00:43;;;;;;;7.60;6.30;;;5.40;99.90;;;;;;5060255;28;20174;-85
2021/12/19 05:03:27;;;;;;;10.10;6.57;;;5.30;99.90;;;;;;5057093;28;20197;-84
2021/12/19 05:14:20;;;;;;;9.03;6.30;;;5.20;99.90;;;;;;5060004;28;20170;-84
2021/12/19 05:16:47;;;;;;;9.77;6.90;;;5.20;99.90;;;;;;5058587;28;20166;-84
2021/12/19 05:19:45;;;;;;;10.43;6.60;;;5.10;99.90;;;;;;5059581;28;20194;-84
2021/12/19 05:22:03;;;;;;;9.30;6.83;;;5.10;99.90;;;;;;5058829;28;20205;-85
2021/12/19 05:27:07;;;;;;;10.30;6.60;;;5.10;99.90;;;;;;5059002;28;20166;-85
2021/12/19 05:29:35;;;;;;;13.37;7.63;;;5.20;99.90;;;;;;5057588;28;20222;-85
2021/12/19 05:32:01;;;;;;;12.37;7.63;;;5.20;99.90;;;;;;5056594;28;20195;-85
2021/12/19 05:34:29;;;;;;;12.47;8.27;;;5.20;99.90;;;;;;5058771;28;20234;-85
2021/12/19 05:47:37;;;;;;;14.67;8.57;;;5.20;99.90;;;;;;5064722;28;20174;-87
2021/12/19 05:50:05;;;;;;;14.60;9.43;;;5.20;99.90;;;;;;5063668;28;20186;-88
2021/12/19 05:52:31;;;;;;;13.73;9.37;;;5.20;99.90;;;;;;5064475;28;20190;-88
2021/12/19 05:54:57;;;;;;;14.63;9.70;;;5.20;99.90;;;;;;5063312;28;20175;-87
2021/12/19 05:57:23;;;;;;;13.87;9.33;;;5.20;99.90;;;;;;5062500;28;20185;-85
2021/12/19 05:59:50;;;;;;;15.93;9.80;;;5.20;99.90;;;;;;5061497;28;20175;-86
2021/12/19 06:02:16;;;;;;;16.43;10.63;;;5.20;99.90;;;;;;5061180;28;20195;-86
2021/12/19 06:04:42;;;;;;;18.33;10.87;;;5.30;99.90;;;;;;5060887;28;20179;-86
2021/12/19 06:07:07;;;;;;;15.30;10.07;;;5.30;99.90;;;;;;5060977;28;20181;-86
2021/12/19 06:09:33;;;;;;;17.93;10.50;;;5.30;99.90;;;;;;5060824;28;20250;-86
2021/12/19 06:11:59;;;;;;;20.03;12.57;;;5.30;99.90;;;;;;5060887;28;20230;-88
2021/12/19 06:14:31;;;;;;;20.87;12.83;;;5.30;99.90;;;;;;5060468;28;20202;-88
2021/12/19 06:16:57;;;;;;;19.30;11.17;;;5.20;99.90;;;;;;5057841;28;20233;-89
2021/12/19 06:19:22;;;;;;;16.97;11.37;;;5.30;99.90;;;;;;5057854;28;20360;-88
2021/12/19 06:21:48;;;;;;;19.57;12.00;;;5.30;99.90;;;;;;5058979;28;20298;-85
2021/12/19 06:24:14;;;;;;;20.60;11.50;;;5.20;99.90;;;;;;5058524;28;20201;-87
2021/12/19 06:26:40;;;;;;;16.63;10.10;;;5.20;99.90;;;;;;5059860;28;20590;-88
2021/12/19 06:29:06;;;;;;;20.30;10.63;;;5.20;99.90;;;;;;5056726;28;20190;-88
2021/12/19 06:31:31;;;;;;;18.60;11.77;;;5.20;99.90;;;;;;5056950;28;20260;-87
2021/12/19 06:33:57;;;;;;;20.20;11.20;;;5.20;99.90;;;;;;5055227;28;20209;-85
2021/12/19 06:36:23;;;;;;;16.23;11.40;;;5.20;99.90;;;;;;5054713;28;20182;-85
2021/12/19 06:38:48;;;;;;;16.90;10.73;;;5.20;99.90;;;;;;5054733;28;20554;-85
2021/12/19 06:41:14;;;;;;;18.43;11.17;;;5.20;99.90;;;;;;5054824;28;20199;-85
2021/12/19 06:43:40;;;;;;;17.53;11.30;;;5.20;99.90;;;;;;5054180;28;20178;-86
2021/12/19 06:46:06;;;;;;;16.67;10.17;;;5.20;99.90;;;;;;5054046;28;20232;-85
2021/12/19 06:48:32;;;;;;;15.50;9.93;;;5.20;99.90;;;;;;5054448;28;20226;-86
2021/12/19 06:50:58;;;;;;;17.13;10.13;;;5.20;99.90;;;;;;5057117;28;20185;-86
2021/12/19 06:53:23;;;;;;;12.80;8.47;;;5.30;99.90;;;;;;5064881;28;20212;-86
2021/12/19 06:55:49;;;;;;;15.90;9.93;;;5.20;99.90;;;;;;5058123;28;20183;-85
2021/12/19 06:58:15;;;;;;;17.93;8.63;;;5.20;99.90;;;;;;5054609;28;20206;-86
2021/12/19 07:00:41;;;;;;;15.07;9.07;;;5.30;99.90;;;;;;5055520;28;20206;-85
2021/12/19 07:03:09;;;;;;;18.07;10.90;;;5.30;99.90;;;;;;5054038;28;20233;-85
2021/12/19 07:05:35;;;;;;;19.90;11.57;;;5.30;99.90;;;;;;5054183;28;20630;-85
2021/12/19 07:08:01;;;;;;;20.23;11.37;;;5.30;99.90;;;;;;5054146;28;20186;-86
2021/12/19 07:10:27;;;;;;;22.37;11.37;;;5.30;99.90;;;;;;5054221;28;20182;-85
2021/12/19 07:12:53;;;;;;;22.83;11.87;;;5.20;99.90;;;;;;5054382;28;20205;-85
2021/12/19 07:15:18;;;;;;;25.00;11.73;;;5.30;99.90;;;;;;5054710;28;20186;-85
2021/12/19 07:17:45;;;;;;;22.73;11.50;;;5.30;99.90;;;;;;5054543;28;20685;-84
2021/12/19 07:20:11;;;;;;;24.93;12.23;;;5.30;99.90;;;;;;5054411;28;20186;-84
2021/12/19 07:22:37;;;;;;;26.27;13.70;;;5.30;99.90;;;;;;5053939;28;20289;-85
2021/12/19 07:25:04;;;;;;;26.40;13.57;;;5.30;99.90;;;;;;5054135;28;20281;-84
2021/12/19 07:27:30;;;;;;;22.57;13.97;;;5.30;99.90;;;;;;5055002;28;20174;-84
2021/12/19 07:29:57;;;;;;;24.17;14.37;;;5.30;99.90;;;;;;5054275;28;20185;-84
2021/12/19 07:32:23;;;;;;;23.00;13.67;;;5.30;99.90;;;;;;5054148;28;20686;-84
2021/12/19 07:34:50;;;;;;;22.63;13.87;;;5.30;99.90;;;;;;5054191;28;20591;-83
2021/12/19 07:37:18;;;;;;;20.90;11.97;;;5.30;99.90;;;;;;5053912;28;20264;-84
2021/12/19 07:40:11;;;;;;;22.37;13.43;;;5.30;99.90;;;;;;5054175;28;20213;-84
2021/12/19 07:42:36;;;;;;;23.67;13.47;;;5.30;99.90;;;;;;5053967;28;20202;-84
2021/12/19 07:45:03;;;;;;;19.90;13.43;;;5.30;99.90;;;;;;5053926;28;20296;-84
2021/12/19 07:47:28;;;;;;;19.63;12.70;;;5.30;99.90;;;;;;5053628;28;20174;-84
2021/12/19 07:49:54;;;;;;;20.80;12.23;;;5.30;99.90;;;;;;5053855;28;20653;-83
2021/12/19 07:52:20;;;;;;;19.47;11.33;;;5.30;99.90;;;;;;5059609;28;20203;-84
2021/12/19 07:54:46;;;;;;;19.77;12.10;;;5.30;99.90;;;;;;5059200;28;20179;-86
2021/12/19 07:57:11;;;;;;;18.37;11.80;;;5.30;99.90;;;;;;5053909;28;20178;-85
2021/12/19 07:59:37;;;;;;;16.93;11.50;;;5.30;99.90;;;;;;5053390;28;20209;-85
2021/12/19 08:02:04;;;;;;;18.80;12.53;;;5.30;99.90;;;;;;5053899;28;20194;-85
2021/12/19 08:04:30;;;;;;;21.10;12.73;;;5.30;99.90;;;;;;5070462;28;20189;-85
2021/12/19 08:06:56;;;;;;;17.50;12.47;;;5.30;99.90;;;;;;5055618;28;20301;-84
2021/12/19 08:09:35;;;;;;;17.10;11.77;;;5.30;99.90;;;;;;5053592;28;20228;-85
2021/12/19 08:12:04;;;;;;;17.30;11.87;;;5.30;99.90;;;;;;5053660;28;20285;-84
2021/12/19 08:14:30;;;;;;;23.23;12.50;;;5.30;99.90;;;;;;5070817;28;20239;-85
2021/12/19 08:16:56;;;;;;;19.20;12.20;;;5.30;99.90;;;;;;5055395;28;20186;-85
2021/12/19 08:19:22;;;;;;;18.07;12.00;;;5.30;99.90;;;;;;5056799;28;20214;-85
2021/12/19 08:21:48;;;;;;;16.10;10.87;;;5.40;99.90;;;;;;5057159;28;20209;-87
2021/12/19 08:24:14;;;;;;;16.97;11.17;;;5.40;99.90;;;;;;5055410;28;20190;-85
2021/12/19 08:26:42;;;;;;;19.83;12.10;;;5.40;99.90;;;;;;5055215;28;20376;-87
2021/12/19 08:29:08;;;;;;;20.07;12.10;;;5.40;99.90;;;;;;5055546;28;20174;-86
2021/12/19 08:31:34;;;;;;;16.67;12.60;;;5.40;99.90;;;;;;5056735;28;20229;-86
2021/12/19 08:34:00;;;;;;;19.07;11.97;;;5.40;99.90;;;;;;5055753;28;20640;-87
2021/12/19 08:36:27;;;;;;;21.40;12.60;;;5.40;99.90;;;;;;5054943;28;20323;-86
2021/12/19 08:38:53;;;;;;;14.67;11.40;;;5.40;99.90;;;;;;5054688;28;20211;-87
2021/12/19 08:41:18;;;;;;;19.27;11.47;;;5.40;99.90;;;;;;5054803;28;20285;-87
2021/12/19 08:43:44;;;;;;;16.07;11.50;;;5.40;99.90;;;;;;5054996;28;20209;-87
2021/12/19 08:46:11;;;;;;;16.87;12.20;;;5.40;99.90;;;;;;5054349;28;20183;-87
2021/12/19 08:48:38;;;;;;;17.27;12.67;;;5.40;99.90;;;;;;5054475;28;20193;-87
2021/12/19 08:51:04;;;;;;;18.00;12.73;;;5.50;99.90;;;;;;5054807;28;20366;-87
2021/12/19 08:53:30;;;;;;;22.60;12.50;;;5.50;99.90;;;;;;5054331;28;20178;-87
2021/12/19 08:55:57;;;;;;;19.37;12.93;;;5.50;99.90;;;;;;5055725;28;20182;-87
2021/12/19 08:58:22;;;;;;;19.00;12.63;;;5.50;99.90;;;;;;5054433;28;20207;-87
2021/12/19 09:00:48;;;;;;;17.90;11.93;;;5.50;99.90;;;;;;5054719;28;20178;-87
2021/12/19 09:03:14;;;;;;;16.80;12.43;;;5.50;99.90;;;;;;5055156;28;20430;-87
2021/12/19 09:05:40;;;;;;;16.57;12.47;;;5.60;99.90;;;;;;5056595;28;20182;-81
2021/12/19 09:08:06;;;;;;;17.73;12.77;;;5.50;99.90;;;;;;5056203;28;20182;-80
2021/12/19 09:10:32;;;;;;;17.43;12.67;;;5.60;99.90;;;;;;5057791;28;20265;-80
2021/12/19 09:12:57;;;;;;;18.83;12.97;;;5.60;99.90;;;;;;5058911;28;20202;-81
2021/12/19 09:15:23;;;;;;;19.67;13.63;;;5.60;99.90;;;;;;5058183;28;20237;-81
2021/12/19 09:17:49;;;;;;;15.47;12.37;;;5.60;99.90;;;;;;5057115;28;20670;-83
2021/12/19 09:20:16;;;;;;;21.83;13.33;;;5.60;99.90;;;;;;5058037;28;20220;-80
2021/12/19 09:22:42;;;;;;;17.53;12.23;;;5.60;99.90;;;;;;5056446;28;20694;-81
2021/12/19 09:25:08;;;;;;;16.07;11.30;;;5.70;99.90;;;;;;5056642;28;20191;-81
2021/12/19 09:27:34;;;;;;;16.70;11.87;;;5.70;99.90;;;;;;5056505;28;20178;-84
2021/12/19 09:30:01;;;;;;;17.27;11.93;;;5.70;99.90;;;;;;5056679;28;20593;-82
2021/12/19 09:32:28;;;;;;;16.20;12.40;;;5.70;99.90;;;;;;5074526;28;20566;-82
2021/12/19 09:34:55;;;;;;;17.37;13.13;;;5.80;99.90;;;;;;5057148;28;20175;-82
2021/12/19 09:37:21;;;;;;;15.80;11.07;;;5.80;99.90;;;;;;5056813;28;20316;-82
2021/12/19 09:39:49;;;;;;;14.73;10.23;;;5.80;99.90;;;;;;5056863;28;20206;-82
2021/12/19 09:42:19;;;;;;;12.37;9.60;;;5.80;99.90;;;;;;5056913;28;20550;-82
2021/12/19 09:44:45;;;;;;;14.23;10.30;;;5.80;99.90;;;;;;5056337;28;20224;-82
2021/12/19 09:47:11;;;;;;;11.57;10.23;;;5.80;99.90;;;;;;5055787;28;20175;-81
2021/12/19 09:49:37;;;;;;;11.73;9.20;;;5.80;99.90;;;;;;5057234;28;20519;-78
2021/12/19 09:52:07;;;;;;;11.93;8.87;;;5.80;99.90;;;;;;5057736;28;20198;-78
2021/12/19 09:54:35;;;;;;;15.17;9.67;;;5.80;99.90;;;;;;5058154;28;20178;-78
2021/12/19 09:57:01;;;;;;;9.60;8.60;;;5.80;99.90;;;;;;5060564;28;20627;-78
2021/12/19 09:59:26;;;;;;;9.27;8.27;;;5.80;99.90;;;;;;5056308;28;20260;-79
2021/12/19 10:01:52;;;;;;;11.80;9.03;;;5.80;99.90;;;;;;5055779;28;20198;-79
2021/12/19 10:04:41;;;;;;;10.10;8.90;;;5.90;99.90;;;;;;5056873;28;20194;-79
2021/12/19 10:07:18;;;;;;;10.27;9.17;;;5.90;99.90;;;;;;5056039;28;20628;-79
2021/12/19 10:10:00;;;;;;;12.90;9.43;;;5.90;99.90;;;;;;5056417;28;20630;-79
2021/12/19 10:15:13;;;;;;;8.73;7.77;;;5.90;99.90;;;;;;5056981;28;20289;-79
2021/12/19 10:17:39;;;;;;;9.90;8.40;;;5.90;99.90;;;;;;5055333;28;20175;-79
2021/12/19 10:20:09;;;;;;;9.07;7.60;;;6.00;99.90;;;;;;5054838;28;20623;-79
2021/12/19 10:22:37;;;;;;;9.87;8.23;;;5.90;99.90;;;;;;5055043;28;20682;-79
2021/12/19 10:25:30;;;;;;;8.93;7.50;;;5.90;99.90;;;;;;5055085;28;20190;-79
2021/12/19 10:28:06;;;;;;;9.40;7.50;;;6.00;99.90;;;;;;5055827;28;20585;-79
2021/12/19 10:30:35;;;;;;;7.93;6.67;;;6.00;99.90;;;;;;5055658;28;20181;-79
2021/12/19 10:33:15;;;;;;;8.27;7.07;;;6.00;99.90;;;;;;5056482;28;20278;-79
2021/12/19 10:35:47;;;;;;;6.97;6.30;;;6.00;99.90;;;;;;5054773;28;20231;-78
2021/12/19 10:38:26;;;;;;;7.57;6.30;;;5.90;99.90;;;;;;5071319;28;20285;-80
2021/12/19 10:40:58;;;;;;;6.83;6.13;;;5.90;99.90;;;;;;5055796;28;20162;-79
2021/12/19 10:43:28;;;;;;;6.20;5.60;;;5.90;99.90;;;;;;5056978;28;20661;-79
2021/12/19 10:45:59;;;;;;;6.97;5.43;;;5.90;99.90;;;;;;5054624;28;20186;-79
2021/12/19 10:48:43;;;;;;;6.73;6.10;;;5.90;99.90;;;;;;5071293;28;20252;-79
2021/12/19 10:51:12;;;;;;;6.83;6.23;;;5.90;99.90;;;;;;5054813;28;20170;-81
2021/12/19 10:53:45;;;;;;;6.33;5.73;;;5.90;99.90;;;;;;5054758;28;20320;-86
2021/12/19 10:56:15;;;;;;;6.47;5.70;;;5.90;99.90;;;;;;5054612;28;20188;-81
2021/12/19 10:58:51;;;;;;;7.00;6.30;;;5.90;99.90;;;;;;5056268;28;20325;-83
2021/12/19 11:01:18;;;;;;;6.63;6.03;;;5.90;99.90;;;;;;5055119;28;20217;-86
2021/12/19 11:03:52;;;;;;;7.23;6.53;;;5.90;99.90;;;;;;5054824;28;20631;-85
2021/12/19 11:06:25;;;;;;;6.60;5.80;;;5.90;99.90;;;;;;5054525;28;20646;-86
2021/12/19 11:08:52;;;;;;;7.43;6.50;;;6.00;99.90;;;;;;5053669;28;20175;-88
2021/12/19 11:11:41;;;;;;;6.40;5.80;;;6.00;99.90;;;;;;5055299;28;20199;-84
2021/12/19 11:14:23;;;;;;;6.13;5.53;;;6.00;99.90;;;;;;5055380;28;20236;-84
2021/12/19 11:16:51;;;;;;;6.57;5.73;;;6.00;99.90;;;;;;5072532;28;20544;-85
2021/12/19 11:19:18;;;;;;;8.83;5.40;;;6.00;99.90;;;;;;5056511;28;20198;-84
2021/12/19 11:21:43;;;;;;;6.47;5.10;;;6.00;99.90;;;;;;5057500;28;20193;-84
2021/12/19 11:24:12;;;;;;;6.20;5.67;;;6.00;99.90;;;;;;5054913;28;20178;-88
2021/12/19 11:26:39;;;;;;;6.60;5.90;;;6.00;99.90;;;;;;5082887;28;20264;-86
2021/12/19 11:29:07;;;;;;;6.73;6.07;;;6.00;99.90;;;;;;5061718;28;20183;-84
2021/12/19 11:31:33;;;;;;;6.73;6.10;;;6.00;99.90;;;;;;5074923;28;20202;-88
2021/12/19 11:34:15;;;;;;;7.10;6.40;;;5.90;99.90;;;;;;5055954;28;20174;-85
2021/12/19 11:36:45;;;;;;;8.90;7.33;;;5.90;99.90;;;;;;5058353;28;20201;-85
2021/12/19 11:39:12;;;;;;;6.90;6.20;;;5.90;99.90;;;;;;5057753;28;20202;-85
2021/12/19 11:41:39;;;;;;;7.37;6.60;;;5.90;99.90;;;;;;5055339;28;20194;-86
2021/12/19 11:44:08;;;;;;;8.47;7.33;;;5.90;99.90;;;;;;5072075;28;20265;-85
2021/12/19 11:46:52;;;;;;;7.80;7.10;;;5.90;99.90;;;;;;5055372;28;20708;-80
2021/12/19 11:49:25;;;;;;;9.90;7.90;;;5.90;99.90;;;;;;5055408;28;20170;-81
2021/12/19 11:52:22;;;;;;;9.10;7.37;;;5.90;99.90;;;;;;5055218;28;20226;-83
2021/12/19 11:55:13;;;;;;;8.10;7.40;;;5.80;99.90;;;;;;5071942;28;20273;-81
2021/12/19 11:57:39;;;;;;;8.80;7.73;;;5.80;99.90;;;;;;5055231;28;20174;-82
2021/12/19 12:00:38;;;;;;;8.53;7.30;;;5.80;99.90;;;;;;5055114;28;20206;-82
2021/12/19 12:03:13;;;;;;;9.47;8.47;;;5.80;99.90;;;;;;5071395;28;20198;-81
2021/12/19 12:05:58;;;;;;;9.90;7.97;;;5.80;99.90;;;;;;5054873;28;20228;-81
2021/12/19 12:08:26;;;;;;;8.63;7.33;;;5.80;99.90;;;;;;5056378;28;20193;-81
2021/12/19 12:10:55;;;;;;;8.13;7.33;;;5.80;99.90;;;;;;5054266;28;20530;-81
2021/12/19 12:13:37;;;;;;;9.30;7.13;;;5.80;99.90;;;;;;5054404;28;20180;-82
2021/12/19 12:16:12;;;;;;;6.47;5.87;;;5.90;99.90;;;;;;5055409;28;20261;-83
2021/12/19 12:18:41;;;;;;;6.60;6.00;;;5.90;99.90;;;;;;5055966;28;20229;-85
2021/12/19 12:21:31;;;;;;;6.73;6.13;;;5.90;99.90;;;;;;5055436;28;20177;-89
2021/12/19 12:24:02;;;;;;;6.87;6.20;;;5.90;99.90;;;;;;5055081;28;20178;-82
2021/12/19 12:26:43;;;;;;;6.53;5.70;;;5.90;99.90;;;;;;5056158;28;20166;-92
2021/12/19 12:29:10;;;;;;;7.50;6.80;;;6.00;99.90;;;;;;5054637;28;20182;-83
2021/12/19 12:31:48;;;;;;;8.33;6.03;;;6.00;99.90;;;;;;5054043;28;20248;-88
2021/12/19 12:34:21;;;;;;;6.67;6.07;;;5.90;99.90;;;;;;5056677;28;20684;-80
2021/12/19 12:36:46;;;;;;;7.20;6.50;;;6.00;99.90;;;;;;5053990;28;20225;-83
2021/12/19 12:39:24;;;;;;;7.13;6.40;;;6.00;99.90;;;;;;5055331;28;20230;-83
2021/12/19 12:44:22;;;;;;;7.17;6.43;;;6.00;99.90;;;;;;5059722;28;20185;-81
2021/12/19 12:46:49;;;;;;;8.33;6.47;;;6.00;99.90;;;;;;5058635;28;20183;-83
2021/12/19 12:49:18;;;;;;;7.63;6.57;;;6.00;99.90;;;;;;5058105;28;20588;-82
2021/12/19 12:51:58;;;;;;;6.70;6.10;;;6.00;99.90;;;;;;5058960;28;20199;-82
2021/12/19 12:54:32;;;;;;;7.43;6.33;;;6.00;99.90;;;;;;5060320;28;20237;-82
2021/12/19 12:57:00;;;;;;;6.50;5.90;;;6.00;99.90;;;;;;5067800;28;20194;-85
2021/12/19 12:59:29;;;;;;;6.93;6.13;;;6.00;99.90;;;;;;5060361;28;20203;-85
2021/12/19 13:02:11;;;;;;;6.80;6.20;;;6.00;99.90;;;;;;5063136;28;20209;-85
2021/12/19 13:04:38;;;;;;;6.93;6.33;;;6.00;99.90;;;;;;5076435;28;20155;-85
2021/12/19 13:07:17;;;;;;;6.73;6.03;;;6.00;99.90;;;;;;5062221;28;20177;-86
2021/12/19 13:09:49;;;;;;;7.00;5.90;;;6.00;99.90;;;;;;5059718;28;20269;-85
2021/12/19 13:12:25;;;;;;;7.80;6.13;;;6.00;99.90;;;;;;5058052;28;20285;-86
2021/12/19 13:15:04;;;;;;;6.60;6.00;;;6.00;99.90;;;;;;5059638;28;20643;-85
2021/12/19 13:17:37;;;;;;;7.83;7.10;;;6.00;99.90;;;;;;5058156;28;20256;-85
2021/12/19 13:20:05;;;;;;;6.47;5.87;;;6.00;99.90;;;;;;5058049;28;20186;-85
2021/12/19 13:22:34;;;;;;;6.63;6.03;;;6.00;99.90;;;;;;5058546;28;20226;-85
2021/12/19 13:25:22;;;;;;;6.07;5.57;;;6.00;99.90;;;;;;5057949;28;20198;-85
2021/12/19 13:28:15;;;;;;;7.83;6.00;;;5.90;99.90;;;;;;5073886;28;20179;-85
2021/12/19 13:30:43;;;;;;;6.47;5.73;;;5.90;99.90;;;;;;5048875;28;20225;-85
2021/12/19 13:33:08;;;;;;;7.20;6.50;;;6.00;99.90;;;;;;5057466;28;20202;-85
2021/12/19 13:35:44;;;;;;;7.03;6.13;;;6.00;99.90;;;;;;5057683;28;20667;-85
2021/12/19 13:38:10;;;;;;;6.80;6.10;;;6.00;99.90;;;;;;5056981;28;20259;-86
2021/12/19 13:40:49;;;;;;;7.87;6.73;;;6.00;99.90;;;;;;5057740;28;20174;-85
2021/12/19 13:43:17;;;;;;;7.53;6.47;;;6.00;99.90;;;;;;5057280;28;20206;-85
2021/12/19 13:45:47;;;;;;;7.10;6.40;;;6.00;99.90;;;;;;5058010;28;20627;-85
2021/12/19 13:48:18;;;;;;;6.93;6.23;;;6.00;99.90;;;;;;5057607;28;20183;-85
2021/12/19 13:50:54;;;;;;;7.83;6.60;;;6.00;99.90;;;;;;5056159;28;20273;-85
2021/12/19 13:53:20;;;;;;;10.77;7.17;;;6.00;99.90;;;;;;5055955;28;20194;-85
2021/12/19 13:55:57;;;;;;;8.70;7.30;;;6.00;99.90;;;;;;5056924;28;20185;-86
2021/12/19 13:58:28;;;;;;;9.60;7.23;;;6.00;99.90;;;;;;5058020;28;20229;-85
2021/12/19 14:00:54;;;;;;;10.37;7.80;;;6.00;99.90;;;;;;5057196;28;20189;-85
2021/12/19 14:03:40;;;;;;;7.80;7.00;;;6.00;99.90;;;;;;5056681;28;20190;-85
2021/12/19 14:06:06;;;;;;;9.40;7.67;;;6.00;99.90;;;;;;5056936;28;20178;-85
2021/12/19 14:08:34;;;;;;;11.00;8.30;;;6.00;99.90;;;;;;5056061;28;20185;-85
2021/12/19 14:11:21;;;;;;;10.27;7.37;;;6.00;99.90;;;;;;5055993;28;20231;-85
2021/12/19 14:14:26;;;;;;;10.90;8.13;;;6.00;99.90;;;;;;5072213;28;20183;-85